Edchera, Western Sahara
Current Conditions -  °F | °C
As of 8:00 PM on Sunday 23 Nov 2014 (Local Time) from GMML Reporting Station
Scattered Clouds Scattered Clouds  
Wind Chill: 64°   Ceiling: Unl
Heat Index: 64°   Visibility: 5mi
Dew Point: 63°   Wind: 3mph
Humidity: 94%   Direction: 270°W
Pressure: 29.97"   Gusts: NA
Location:  27.1°N, 13.3°W
Report Text: GMML 232000Z 27003KT 8000 FEW016 SCT020 18/17 Q1015 NOSIG
Loading
Personal Weather Stations






























Interactive Weather Map New forecast layout! Learn more

10-Day Weather Forecast

Advertisements
Track Severe Weather on mobile